Latest Weather Observations for Mount Isa

IDQ60801

Issued at 8:32 pm EST Tuesday 7 July 2015 (issued every 30 minutes, with the page automatically refreshed every 10 minutes)

About weather observations | Map of weather stations | Latest weather observations for QLD | Other Formats
Station Details ID: 029127 Name: MOUNT ISA AERO Lat: -20.68 Lon: 139.49 Height: 340.3 m
Data from the previous 72 hours. | See also: Recent months at Mount Isa
Date/Time
EST
Temp
°C
App
Temp
°C
Dew
Point
Rel
Hum
%
Delta-T
°C
Wind Press
QNH
hPa
Press
MSL
hPa
Rain
since 9 am
mm
Dir
 
Spd
km/h
Gust
km/h
Spd
kts
Gust
kts
07/08:00pm 19.7 15.7 -2.2 22 9.4 S 9 11 5 6 1017.7 - 0.0
07/07:30pm 19.0 14.2 0.2 28 8.4 SW 15 15 8 8 1017.2 - 0.0
07/07:00pm 21.0 16.8 -1.1 22 9.8 S 11 13 6 7 1016.9 - 0.0
07/06:30pm 21.4 17.2 1.6 27 9.3 SSW 13 13 7 7 1016.6 - 0.0
07/06:00pm 23.6 19.8 -0.7 20 11.1 SW 9 13 5 7 1016.3 1015.7 0.0
07/05:30pm 24.6 20.3 -1.3 18 11.8 SW 11 20 6 11 1016.2 - 0.0
07/05:00pm 25.6 20.7 -0.7 17 12.2 SSW 15 20 8 11 1016.2 - 0.0
07/04:30pm 25.2 20.9 -1.6 17 12.2 WSW 11 17 6 9 1016.1 - 0.0
07/04:00pm 25.7 21.8 -1.8 16 12.5 S 9 13 5 7 1016.1 - 0.0
07/03:30pm 25.0 20.9 -3.1 15 12.4 WSW 9 15 5 8 1016.3 - 0.0
07/03:00pm 24.8 21.2 -2.2 16 12.1 W 7 11 4 6 1016.5 1015.9 0.0
07/02:30pm 25.0 21.3 -2.6 16 12.3 ESE 7 13 4 7 1016.7 - 0.0
07/02:00pm 25.2 21.3 -1.7 17 12.2 SSW 9 15 5 8 1017.2 - 0.0
07/01:30pm 24.3 20.1 -3.5 15 12.1 SSE 9 17 5 9 1017.6 - 0.0
07/01:00pm 24.4 20.3 -2.8 16 12.0 ENE 9 15 5 8 1018.1 - 0.0
07/12:30pm 23.7 19.5 -3.6 16 11.8 ENE 9 15 5 8 1018.6 - 0.0
07/12:00pm 23.0 17.5 -5.0 15 11.7 E 15 22 8 12 1019.0 1018.4 0.0
07/11:30am 22.4 16.8 -6.7 13 11.7 E 15 20 8 11 1019.3 - 0.0
07/11:00am 21.5 16.3 -6.0 15 11.1 SE 13 19 7 10 1019.7 - 0.0
07/10:30am 20.0 14.4 -6.8 16 10.5 SSE 15 22 8 12 1020.0 - 0.0
07/10:00am 19.2 13.1 -8.0 15 10.3 SSE 17 22 9 12 1020.2 - 0.0
07/09:30am 18.4 11.9 -7.9 16 9.9 SSE 19 24 10 13 1020.3 - 0.0
07/09:00am 16.3 11.7 -7.4 19 8.8 SSE 9 13 5 7 1020.1 1019.6 0.0
07/08:30am 14.6 10.1 -6.8 22 7.9 SSE 9 13 5 7 1019.8 - 0.0
07/08:00am 13.3 9.2 -6.8 24 7.3 SSE 7 11 4 6 1019.4 - 0.0
07/07:30am 12.6 7.2 -7.9 23 7.2 S 13 15 7 8 1019.1 - 0.0
07/07:00am 12.2 7.0 -6.7 26 6.8 S 13 15 7 8 1018.8 - 0.0
07/06:30am 11.9 7.2 -5.0 30 6.3 SSE 11 13 6 7 1018.6 - 0.0
07/06:00am 12.7 7.8 -6.6 25 7.0 SSE 11 13 6 7 1018.2 1017.6 0.0
07/05:30am 12.2 7.5 -5.3 29 6.5 SSE 11 13 6 7 1018.1 - 0.0
07/05:00am 13.0 7.9 -5.0 28 6.8 S 13 15 7 8 1017.9 - 0.0
07/04:30am 13.8 8.7 -5.2 26 7.2 S 13 15 7 8 1017.7 - 0.0
07/04:00am 14.2 8.8 -4.8 26 7.3 S 15 17 8 9 1017.6 - 0.0
07/03:30am 14.6 9.2 -4.9 25 7.5 S 15 17 8 9 1017.7 - 0.0
07/03:00am 14.6 9.6 -4.0 27 7.3 S 13 15 7 8 1017.6 1017.0 0.0
07/02:30am 14.9 10.3 -3.8 27 7.4 SSE 11 13 6 7 1017.7 - 0.0
07/02:00am 15.4 10.1 -3.2 27 7.5 S 15 17 8 9 1017.9 - 0.0
07/01:30am 16.0 11.2 -2.9 27 7.7 SSE 13 15 7 8 1017.9 - 0.0
07/01:00am 16.3 11.9 -2.3 28 7.7 SSE 11 13 6 7 1018.0 - 0.0
07/12:30am 16.6 11.9 -1.7 28 7.7 S 13 15 7 8 1018.0 - 0.0
07/12:00am 16.7 12.5 -1.1 29 7.6 SSE 11 13 6 7 1018.1 1017.5 0.0
 
Date/Time
EST
Temp
°C
App
Temp
°C
Dew
Point
Rel
Hum
%
Delta-T
°C
Wind Press
QNH
hPa
Press
MSL
hPa
Rain
since 9 am
mm
Dir
 
Spd
km/h
Gust
km/h
Spd
kts
Gust
kts
06/11:30pm 17.3 12.7 -1.1 28 7.9 SSE 13 13 7 7 1018.3 - 0.0
06/11:00pm 16.0 11.5 -0.2 33 7.0 SSE 13 15 7 8 1018.3 - 0.0
06/10:30pm 17.8 13.2 -0.9 28 8.1 S 13 15 7 8 1018.2 - 0.0
06/10:00pm 13.0 8.8 1.5 45 5.0 S 13 13 7 7 1018.2 - 0.0
06/09:30pm 15.5 12.1 1.9 40 6.1 S 9 11 5 6 1018.1 - 0.0
06/09:00pm 17.4 13.4 0.2 31 7.6 SSE 11 15 6 8 1018.0 1017.4 0.0
06/08:30pm 17.1 13.2 1.3 34 7.1 SSE 11 11 6 6 1017.8 - 0.0
06/08:00pm 19.3 15.7 0.4 28 8.5 S 9 11 5 6 1017.7 - 0.0
06/07:30pm 20.9 16.8 -0.5 24 9.6 S 11 13 6 7 1017.5 - 0.0
06/07:00pm 21.1 17.0 -0.5 23 9.7 SSW 11 15 6 8 1016.9 - 0.0
06/06:30pm 21.7 17.7 0.7 25 9.7 SSW 11 13 6 7 1016.6 - 0.0
06/06:00pm 24.0 19.2 -2.3 17 11.7 S 13 17 7 9 1016.5 1015.9 0.0
06/05:30pm 25.1 20.7 -2.8 15 12.4 S 11 17 6 9 1016.5 - 0.0
06/05:00pm 25.8 21.0 -2.9 15 12.8 S 13 26 7 14 1016.5 - 0.0
06/04:30pm 26.1 21.0 -1.7 16 12.7 SSW 15 22 8 12 1016.4 - 0.0
06/04:00pm 25.8 21.8 -2.4 15 12.7 S 9 20 5 11 1016.4 - 0.0
06/03:30pm 26.3 21.1 -2.5 15 13.0 SSE 15 28 8 15 1016.6 - 0.0
06/03:00pm 26.0 21.6 -2.8 15 12.9 SSW 11 22 6 12 1017.0 1016.5 0.0
06/02:30pm 25.8 21.5 -2.0 16 12.6 S 11 17 6 9 1017.2 - 0.0
06/02:00pm 25.7 21.3 -2.7 15 12.7 WNW 11 19 6 10 1017.5 - 0.0
06/01:30pm 25.3 20.9 -2.3 16 12.4 SSE 11 15 6 8 1017.9 - 0.0
06/01:00pm 24.9 21.0 -4.4 14 12.6 ESE 7 13 4 7 1018.5 - 0.0
06/12:30pm 24.3 20.2 -3.0 16 12.0 SSW 9 15 5 8 1019.1 - 0.0
06/12:00pm 23.8 19.8 -2.0 18 11.5 ESE 9 13 5 7 1019.5 1018.9 0.0
06/11:30am 23.1 18.7 -2.4 18 11.2 ESE 11 17 6 9 1019.9 - 0.0
06/11:00am 21.8 17.5 -1.5 21 10.3 SE 11 17 6 9 1020.3 - 0.0
06/10:30am 20.5 17.1 -0.6 24 9.4 S 7 11 4 6 1020.7 - 0.0
06/10:00am 18.8 14.8 -2.1 24 8.9 S 9 11 5 6 1020.8 - 0.0
06/09:30am 17.0 12.3 -1.7 28 7.9 S 13 17 7 9 1020.6 - 0.0
06/09:00am 15.6 11.0 -1.3 31 7.1 S 13 15 7 8 1020.2 1019.7 0.0
06/08:30am 14.2 9.6 -1.2 34 6.4 S 13 17 7 9 1019.8 - 0.0
06/08:00am 12.3 8.1 -1.2 39 5.5 SSE 11 15 6 8 1019.4 - 0.0
06/07:30am 9.3 5.2 -0.4 50 3.9 S 11 13 6 7 1019.2 - 0.0
06/07:00am 8.8 4.6 -1.1 50 3.9 SSE 11 13 6 7 1018.9 - 0.0
06/06:30am 10.4 6.3 -0.4 47 4.4 SSE 11 13 6 7 1018.8 - 0.0
06/06:00am 13.2 9.1 -3.4 31 6.5 SSE 9 11 5 6 1018.5 1017.9 0.0
06/05:30am 8.4 5.1 -1.0 51 3.7 S 6 9 3 5 1018.5 - 0.0
06/05:00am 8.9 5.4 -1.3 49 4.0 S 7 9 4 5 1018.4 - 0.0
06/04:30am 11.4 8.0 -0.9 42 5.0 SE 7 9 4 5 1018.5 - 0.0
06/04:00am 13.9 9.8 -2.9 31 6.7 SSE 9 11 5 6 1018.5 - 0.0
06/03:30am 14.0 9.9 -3.1 30 6.8 SSE 9 11 5 6 1018.6 - 0.0
06/03:00am 14.0 9.5 -3.1 30 6.8 S 11 15 6 8 1018.6 1018.0 0.0
06/02:30am 14.7 10.9 -3.4 28 7.2 S 7 11 4 6 1018.7 - 0.0
06/02:00am 14.3 10.8 -2.9 30 6.9 SSE 6 9 3 5 1019.0 - 0.0
06/01:30am 14.8 9.9 -3.2 28 7.2 S 13 13 7 7 1019.2 - 0.0
06/01:00am 14.5 9.7 -2.2 31 6.8 S 13 13 7 7 1019.2 - 0.0
06/12:30am 15.2 11.1 -2.8 29 7.3 S 9 11 5 6 1019.2 - 0.0
06/12:00am 15.1 10.3 -2.2 30 7.1 S 13 15 7 8 1019.3 1018.7 0.0
 
Date/Time
EST
Temp
°C
App
Temp
°C
Dew
Point
Rel
Hum
%
Delta-T
°C
Wind Press
QNH
hPa
Press
MSL
hPa
Rain
since 9 am
mm
Dir
 
Spd
km/h
Gust
km/h
Spd
kts
Gust
kts
05/11:30pm 13.9 9.7 -1.0 36 6.2 SSE 11 13 6 7 1019.4 - 0.0
05/11:00pm 16.3 12.2 -2.7 27 7.8 S 9 11 5 6 1019.3 - 0.0
05/10:30pm 14.1 10.8 0.4 39 5.9 SSE 7 9 4 5 1019.3 - 0.0
05/10:00pm 15.4 11.7 0.1 35 6.6 S 9 9 5 5 1019.2 - 0.0
05/09:30pm 17.7 13.8 -1.5 27 8.2 SSE 9 11 5 6 1019.0 - 0.0
05/09:00pm 18.1 14.2 -1.5 26 8.4 S 9 11 5 6 1018.9 1018.3 0.0
05/08:30pm 18.9 14.6 -1.9 24 8.9 SSE 11 13 6 7 1018.7 - 0.0
05/08:00pm 20.5 16.1 -2.6 21 9.9 S 11 13 6 7 1018.4 - 0.0
05/07:30pm 21.7 16.8 -3.4 18 10.7 SSW 13 17 7 9 1018.0 - 0.0
05/07:00pm 22.1 16.9 -2.9 18 10.8 SSW 15 17 8 9 1017.6 - 0.0
05/06:30pm 23.2 17.5 -3.9 16 11.6 SSW 17 26 9 14 1017.4 - 0.0
05/06:00pm 24.1 17.8 -4.0 15 12.1 SSW 20 26 11 14 1017.1 1016.6 0.0
05/05:30pm 25.2 18.5 -4.5 13 12.8 SSW 22 30 12 16 1016.9 - 0.0
05/05:00pm 26.0 20.6 -4.3 13 13.2 S 15 24 8 13 1016.7 - 0.0
05/04:30pm 26.6 22.5 -3.2 14 13.3 SSE 9 19 5 10 1016.7 - 0.0
05/04:00pm 27.2 22.3 -3.0 13 13.6 SSW 13 20 7 11 1016.8 - 0.0
05/03:30pm 26.3 21.3 -4.5 13 13.4 S 13 19 7 10 1016.9 - 0.0
05/03:00pm 26.6 22.0 -3.7 13 13.4 SSW 11 15 6 8 1017.1 1016.6 0.0
05/02:30pm 26.4 22.3 -2.8 14 13.1 S 9 17 5 9 1017.4 - 0.0
05/02:00pm 25.7 21.2 -3.2 14 12.8 SW 11 20 6 11 1017.7 - 0.0
05/01:30pm 26.3 22.2 -3.0 14 13.1 SSE 9 15 5 8 1018.1 - 0.0
05/01:00pm 25.7 22.0 -2.7 15 12.7 S 7 11 4 6 1018.6 - 0.0
05/12:30pm 24.7 20.6 -3.0 16 12.2 WNW 9 17 5 9 1019.1 - 0.0
05/12:00pm 24.6 21.2 -2.3 16 12.0 NNW 6 11 3 6 1019.4 1018.8 0.0
05/11:30am 24.1 19.5 -4.1 15 12.1 E 11 17 6 9 1019.8 - 0.0
05/11:00am 24.2 19.6 -3.8 15 12.1 ENE 11 19 6 10 1020.1 - 0.0
05/10:30am 21.8 18.5 -1.5 21 10.3 ESE 6 9 3 5 1020.2 - 0.0
05/10:00am 19.4 17.2 -1.7 24 9.1 CALM 0 7 0 4 1020.1 - 0.0
05/09:30am 17.0 13.1 -1.7 28 7.9 SSE 9 11 5 6 1020.0 - 0.0
05/09:00am 15.8 11.5 -1.7 30 7.3 S 11 13 6 7 1019.8 1019.3 0.0
05/08:30am 14.1 9.9 -1.0 35 6.3 S 11 13 6 7 1019.6 - 0.0
05/08:22am 13.3 9.8 1.1 43 5.3 S 9 13 5 7 1019.5 - 0.0
05/08:00am 8.2 6.2 0.0 56 3.3 CALM 0 0 0 0 1019.4 - 0.0
05/07:30am 5.8 3.6 -1.3 60 2.7 CALM 0 0 0 0 1019.2 - 0.0
05/07:00am 6.8 3.6 -0.6 59 2.9 S 6 7 3 4 1018.8 - 0.0
05/06:30am 8.6 6.2 -0.4 53 3.6 S 2 7 1 4 1018.4 - 0.0
05/06:00am 12.2 7.8 -2.1 37 5.7 S 11 13 6 7 1018.2 1017.6 0.0
05/05:30am 12.2 8.3 -1.3 39 5.5 SSE 9 11 5 6 1018.1 - 0.0
05/05:00am 12.9 9.0 -1.6 36 5.9 S 9 9 5 5 1018.1 - 0.0
05/04:30am 13.0 10.3 -2.2 35 6.1 S 2 6 1 3 1018.1 - 0.0
05/04:00am 12.5 9.1 -2.3 35 5.9 S 6 9 3 5 1018.0 - 0.0
05/03:30am 14.2 10.2 -2.3 32 6.7 SE 9 11 5 6 1018.0 - 0.0
05/03:00am 14.9 9.6 -3.4 28 7.3 S 15 17 8 9 1017.9 1017.3 0.0
05/02:30am 15.2 9.9 -3.6 27 7.5 S 15 17 8 9 1018.0 - 0.0
05/02:00am 15.5 10.6 -3.5 27 7.6 S 13 15 7 8 1018.3 - 0.0
05/01:30am 15.5 10.7 -2.6 28 7.4 S 13 15 7 8 1018.4 - 0.0
05/01:00am 15.6 12.2 -2.4 29 7.4 S 6 9 3 5 1018.5 - 0.0
05/12:30am 16.2 13.9 -2.5 27 7.7 CALM 0 0 0 0 1018.5 - 0.0
05/12:00am 16.1 12.8 -1.5 30 7.4 SSW 6 7 3 4 1018.5 1017.9 0.0
 
Date/Time
EST
Temp
°C
App
Temp
°C
Dew
Point
Rel
Hum
%
Delta-T
°C
Wind Press
QNH
hPa
Press
MSL
hPa
Rain
since 9 am
mm
Dir
 
Spd
km/h
Gust
km/h
Spd
kts
Gust
kts
04/11:30pm 16.3 12.5 -1.1 30 7.4 S 9 11 5 6 1018.5 - 0.0
04/11:00pm 16.3 12.1 -1.1 30 7.4 SSE 11 13 6 7 1018.6 - 0.0
04/10:30pm 17.4 12.3 -2.1 26 8.2 S 15 19 8 10 1018.4 - 0.0
04/10:00pm 17.9 12.3 -2.7 24 8.6 S 17 17 9 9 1018.5 - 0.0
04/09:30pm 18.3 13.2 -1.9 25 8.6 S 15 17 8 9 1018.5 - 0.0
04/09:00pm 18.8 14.1 -2.1 24 8.9 SSE 13 15 7 8 1018.4 1017.8 0.0

Other Formats:

Comma delimited format used in spreadsheet applications
http://www.bom.gov.au/fwo/IDQ60801/IDQ60801.94332.axf

JavaScript Object Notation format (JSON) in row-major order
http://www.bom.gov.au/fwo/IDQ60801/IDQ60801.94332.json